sensor_id;sensor_type;location;lat;lon;timestamp;pressure;altitude;pressure_sealevel;temperature;humidity
81005;BME280;70472;47.592;17.640;2024-01-30T00:00:13;101960.09;;;-3.06;91.47
81005;BME280;70472;47.592;17.640;2024-01-30T00:00:46;101968.78;;;-3.02;91.86
81005;BME280;70472;47.592;17.640;2024-01-30T00:01:18;101975.59;;;-2.95;91.45
81005;BME280;70472;47.592;17.640;2024-01-30T00:01:51;101970.41;;;-2.98;92.00
81005;BME280;70472;47.592;17.640;2024-01-30T00:02:23;101966.16;;;-3.02;92.14
81005;BME280;70472;47.592;17.640;2024-01-30T00:02:56;101967.03;;;-3.03;91.64
81005;BME280;70472;47.592;17.640;2024-01-30T00:03:28;101967.81;;;-3.00;91.25
81005;BME280;70472;47.592;17.640;2024-01-30T00:04:00;101971.31;;;-2.99;91.79
81005;BME280;70472;47.592;17.640;2024-01-30T00:04:33;101966.88;;;-2.97;91.25
81005;BME280;70472;47.592;17.640;2024-01-30T00:05:05;101970.34;;;-2.95;91.42
81005;BME280;70472;47.592;17.640;2024-01-30T00:05:38;101966.88;;;-2.97;91.19
81005;BME280;70472;47.592;17.640;2024-01-30T00:06:11;101966.91;;;-2.99;91.51
81005;BME280;70472;47.592;17.640;2024-01-30T00:06:44;101965.25;;;-3.03;91.41
81005;BME280;70472;47.592;17.640;2024-01-30T00:07:17;101970.41;;;-2.98;90.87
81005;BME280;70472;47.592;17.640;2024-01-30T00:07:50;101973.03;;;-2.98;91.02
81005;BME280;70472;47.592;17.640;2024-01-30T00:08:22;101966.81;;;-2.94;91.14
81005;BME280;70472;47.592;17.640;2024-01-30T00:08:55;101971.25;;;-2.96;90.59
81005;BME280;70472;47.592;17.640;2024-01-30T00:09:27;101963.41;;;-2.98;90.89
81005;BME280;70472;47.592;17.640;2024-01-30T00:10:00;101966.00;;;-2.96;90.97
81005;BME280;70472;47.592;17.640;2024-01-30T00:10:32;101966.97;;;-3.00;90.51
81005;BME280;70472;47.592;17.640;2024-01-30T00:11:04;101971.34;;;-3.01;90.78
81005;BME280;70472;47.592;17.640;2024-01-30T00:11:37;101972.25;;;-3.02;90.95
81005;BME280;70472;47.592;17.640;2024-01-30T00:12:10;101971.41;;;-3.02;90.57
81005;BME280;70472;47.592;17.640;2024-01-30T00:12:42;101970.59;;;-3.06;90.94
81005;BME280;70472;47.592;17.640;2024-01-30T00:13:15;101959.13;;;-3.02;91.10
81005;BME280;70472;47.592;17.640;2024-01-30T00:13:47;101967.91;;;-3.04;90.30
81005;BME280;70472;47.592;17.640;2024-01-30T00:14:19;101972.28;;;-3.03;90.25
81005;BME280;70472;47.592;17.640;2024-01-30T00:14:52;101963.53;;;-3.04;90.20
81005;BME280;70472;47.592;17.640;2024-01-30T00:15:25;101965.25;;;-3.01;90.51
81005;BME280;70472;47.592;17.640;2024-01-30T00:15:58;101968.78;;;-3.02;90.16
81005;BME280;70472;47.592;17.640;2024-01-30T00:16:32;101963.63;;;-3.07;90.32
81005;BME280;70472;47.592;17.640;2024-01-30T00:17:05;101968.00;;;-3.07;90.52
81005;BME280;70472;47.592;17.640;2024-01-30T00:17:37;101962.75;;;-3.07;90.53
81005;BME280;70472;47.592;17.640;2024-01-30T00:18:10;101960.13;;;-3.09;90.14
81005;BME280;70472;47.592;17.640;2024-01-30T00:18:42;101967.16;;;-3.08;90.48
81005;BME280;70472;47.592;17.640;2024-01-30T00:19:15;101970.59;;;-3.06;90.41
81005;BME280;70472;47.592;17.640;2024-01-30T00:19:47;101972.53;;;-3.14;90.44
81005;BME280;70472;47.592;17.640;2024-01-30T00:20:20;101970.72;;;-3.12;89.86
81005;BME280;70472;47.592;17.640;2024-01-30T00:20:53;101969.91;;;-3.15;90.43
81005;BME280;70472;47.592;17.640;2024-01-30T00:21:25;101969.91;;;-3.15;90.32
81005;BME280;70472;47.592;17.640;2024-01-30T00:21:58;101975.25;;;-3.18;89.67
81005;BME280;70472;47.592;17.640;2024-01-30T00:22:30;101977.97;;;-3.23;90.09
81005;BME280;70472;47.592;17.640;2024-01-30T00:23:03;101972.72;;;-3.23;89.44
81005;BME280;70472;47.592;17.640;2024-01-30T00:23:35;101972.00;;;-3.30;89.84
81005;BME280;70472;47.592;17.640;2024-01-30T00:24:08;101972.91;;;-3.31;89.71
81005;BME280;70472;47.592;17.640;2024-01-30T00:24:40;101975.56;;;-3.34;89.86
81005;BME280;70472;47.592;17.640;2024-01-30T00:25:13;101971.16;;;-3.32;89.92
81005;BME280;70472;47.592;17.640;2024-01-30T00:25:45;101977.28;;;-3.33;90.51
81005;BME280;70472;47.592;17.640;2024-01-30T00:26:18;101970.31;;;-3.34;89.88
81005;BME280;70472;47.592;17.640;2024-01-30T00:26:50;101968.59;;;-3.35;89.96
81005;BME280;70472;47.592;17.640;2024-01-30T00:27:22;101972.84;;;-3.29;90.02
81005;BME280;70472;47.592;17.640;2024-01-30T00:27:55;101971.03;;;-3.27;89.84
81005;BME280;70472;47.592;17.640;2024-01-30T00:28:27;101968.47;;;-3.29;89.84
81005;BME280;70472;47.592;17.640;2024-01-30T00:28:59;101972.84;;;-3.29;89.82
81005;BME280;70472;47.592;17.640;2024-01-30T00:29:32;101971.09;;;-3.29;90.00
81005;BME280;70472;47.592;17.640;2024-01-30T00:30:05;101966.78;;;-3.33;89.87
81005;BME280;70472;47.592;17.640;2024-01-30T00:30:37;101966.75;;;-3.30;90.18
81005;BME280;70472;47.592;17.640;2024-01-30T00:31:10;101961.53;;;-3.33;90.54
81005;BME280;70472;47.592;17.640;2024-01-30T00:31:42;101960.69;;;-3.33;89.92
81005;BME280;70472;47.592;17.640;2024-01-30T00:32:15;101958.97;;;-3.34;90.02
81005;BME280;70472;47.592;17.640;2024-01-30T00:32:47;101964.22;;;-3.34;90.23
81005;BME280;70472;47.592;17.640;2024-01-30T00:33:20;101970.41;;;-3.38;90.44
81005;BME280;70472;47.592;17.640;2024-01-30T00:33:52;101968.69;;;-3.38;90.02
81005;BME280;70472;47.592;17.640;2024-01-30T00:34:25;101964.28;;;-3.37;90.43
81005;BME280;70472;47.592;17.640;2024-01-30T00:34:57;101956.38;;;-3.36;90.89
81005;BME280;70472;47.592;17.640;2024-01-30T00:35:29;101966.00;;;-3.36;90.91
81005;BME280;70472;47.592;17.640;2024-01-30T00:36:02;101959.88;;;-3.35;90.48
81005;BME280;70472;47.592;17.640;2024-01-30T00:36:34;101954.72;;;-3.40;90.94
81005;BME280;70472;47.592;17.640;2024-01-30T00:37:07;101961.69;;;-3.39;90.76
81005;BME280;70472;47.592;17.640;2024-01-30T00:37:39;101963.44;;;-3.38;90.89
81005;BME280;70472;47.592;17.640;2024-01-30T00:38:12;101969.59;;;-3.40;90.86
81005;BME280;70472;47.592;17.640;2024-01-30T00:38:44;101966.00;;;-3.36;90.92
81005;BME280;70472;47.592;17.640;2024-01-30T00:39:17;101966.78;;;-3.33;90.75
81005;BME280;70472;47.592;17.640;2024-01-30T00:39:49;101973.84;;;-3.35;90.56
81005;BME280;70472;47.592;17.640;2024-01-30T00:40:21;101967.78;;;-3.38;90.91
81005;BME280;70472;47.592;17.640;2024-01-30T00:40:54;101963.47;;;-3.41;90.31
81005;BME280;70472;47.592;17.640;2024-01-30T00:41:26;101962.44;;;-3.34;91.14
81005;BME280;70472;47.592;17.640;2024-01-30T00:41:59;101959.00;;;-3.36;91.00
81005;BME280;70472;47.592;17.640;2024-01-30T00:42:31;101964.25;;;-3.36;90.92
81005;BME280;70472;47.592;17.640;2024-01-30T00:43:04;101959.09;;;-3.40;90.70
81005;BME280;70472;47.592;17.640;2024-01-30T00:43:36;101959.19;;;-3.43;91.20
81005;BME280;70472;47.592;17.640;2024-01-30T00:44:09;101956.41;;;-3.37;90.92
81005;BME280;70472;47.592;17.640;2024-01-30T00:44:41;101965.16;;;-3.37;90.98
81005;BME280;70472;47.592;17.640;2024-01-30T00:45:15;101963.34;;;-3.35;91.29
81005;BME280;70472;47.592;17.640;2024-01-30T00:45:48;101959.97;;;-3.40;91.18
81005;BME280;70472;47.592;17.640;2024-01-30T00:46:20;101954.84;;;-3.46;91.38
81005;BME280;70472;47.592;17.640;2024-01-30T00:46:53;101957.34;;;-3.40;90.86
81005;BME280;70472;47.592;17.640;2024-01-30T00:47:25;101959.09;;;-3.40;91.43
81005;BME280;70472;47.592;17.640;2024-01-30T00:47:58;101957.38;;;-3.41;91.28
81005;BME280;70472;47.592;17.640;2024-01-30T00:48:31;101964.31;;;-3.39;91.47
81005;BME280;70472;47.592;17.640;2024-01-30T00:49:03;101961.75;;;-3.42;91.51
81005;BME280;70472;47.592;17.640;2024-01-30T00:49:36;101962.66;;;-3.43;91.02
81005;BME280;70472;47.592;17.640;2024-01-30T00:50:09;101961.69;;;-3.39;91.62
81005;BME280;70472;47.592;17.640;2024-01-30T00:50:42;101957.28;;;-3.37;91.60
81005;BME280;70472;47.592;17.640;2024-01-30T00:51:14;101961.81;;;-3.45;91.32
81005;BME280;70472;47.592;17.640;2024-01-30T00:51:47;101958.31;;;-3.45;91.90
81005;BME280;70472;47.592;17.640;2024-01-30T00:52:19;101956.69;;;-3.51;91.29
81005;BME280;70472;47.592;17.640;2024-01-30T00:52:51;101953.16;;;-3.50;91.77
81005;BME280;70472;47.592;17.640;2024-01-30T00:53:24;101957.41;;;-3.44;92.58
81005;BME280;70472;47.592;17.640;2024-01-30T00:53:56;101957.38;;;-3.41;92.67
81005;BME280;70472;47.592;17.640;2024-01-30T00:54:29;101959.13;;;-3.42;92.26
81005;BME280;70472;47.592;17.640;2024-01-30T00:55:02;101955.59;;;-3.41;91.68
81005;BME280;70472;47.592;17.640;2024-01-30T00:55:35;101954.78;;;-3.43;92.11
81005;BME280;70472;47.592;17.640;2024-01-30T00:56:07;101959.09;;;-3.40;91.87
81005;BME280;70472;47.592;17.640;2024-01-30T00:56:40;101958.19;;;-3.39;91.97
81005;BME280;70472;47.592;17.640;2024-01-30T00:57:12;101954.66;;;-3.37;91.92
81005;BME280;70472;47.592;17.640;2024-01-30T00:57:45;101956.44;;;-3.39;91.19
81005;BME280;70472;47.592;17.640;2024-01-30T00:58:17;101956.34;;;-3.34;91.18
81005;BME280;70472;47.592;17.640;2024-01-30T00:58:49;101956.28;;;-3.33;91.31
81005;BME280;70472;47.592;17.640;2024-01-30T00:59:22;101953.78;;;-3.37;91.10
81005;BME280;70472;47.592;17.640;2024-01-30T00:59:54;101960.03;;;-3.43;91.35
81005;BME280;70472;47.592;17.640;2024-01-30T01:00:27;101948.69;;;-3.45;91.84
81005;BME280;70472;47.592;17.640;2024-01-30T01:00:59;101952.13;;;-3.41;92.56
81005;BME280;70472;47.592;17.640;2024-01-30T01:01:31;101953.72;;;-3.34;92.73
81005;BME280;70472;47.592;17.640;2024-01-30T01:02:04;101955.47;;;-3.35;92.90
81005;BME280;70472;47.592;17.640;2024-01-30T01:02:36;101950.31;;;-3.38;92.83
81005;BME280;70472;47.592;17.640;2024-01-30T01:03:09;101952.94;;;-3.38;91.91
81005;BME280;70472;47.592;17.640;2024-01-30T01:03:43;101944.16;;;-3.37;91.58
81005;BME280;70472;47.592;17.640;2024-01-30T01:04:16;101954.63;;;-3.35;92.25
81005;BME280;70472;47.592;17.640;2024-01-30T01:04:48;101942.34;;;-3.35;92.18
81005;BME280;70472;47.592;17.640;2024-01-30T01:05:21;101945.06;;;-3.38;91.58
81005;BME280;70472;47.592;17.640;2024-01-30T01:05:54;101953.81;;;-3.39;91.45
81005;BME280;70472;47.592;17.640;2024-01-30T01:06:26;101952.94;;;-3.39;91.94
81005;BME280;70472;47.592;17.640;2024-01-30T01:06:59;101956.50;;;-3.42;92.09
81005;BME280;70472;47.592;17.640;2024-01-30T01:07:31;101957.25;;;-3.35;91.97
81005;BME280;70472;47.592;17.640;2024-01-30T01:08:04;101955.44;;;-3.33;92.50
81005;BME280;70472;47.592;17.640;2024-01-30T01:08:36;101947.47;;;-3.29;92.36
81005;BME280;70472;47.592;17.640;2024-01-30T01:09:10;101954.56;;;-3.34;92.20
81005;BME280;70472;47.592;17.640;2024-01-30T01:09:42;101950.31;;;-3.38;92.04
81005;BME280;70472;47.592;17.640;2024-01-30T01:10:16;101946.78;;;-3.37;91.46
81005;BME280;70472;47.592;17.640;2024-01-30T01:10:48;101952.84;;;-3.35;91.65
81005;BME280;70472;47.592;17.640;2024-01-30T01:11:21;101944.25;;;-3.41;91.94
81005;BME280;70472;47.592;17.640;2024-01-30T01:11:53;101951.22;;;-3.40;91.29
81005;BME280;70472;47.592;17.640;2024-01-30T01:12:26;101954.66;;;-3.37;91.31
81005;BME280;70472;47.592;17.640;2024-01-30T01:12:58;101952.03;;;-3.37;91.69
81005;BME280;70472;47.592;17.640;2024-01-30T01:13:30;101950.28;;;-3.36;91.33
81005;BME280;70472;47.592;17.640;2024-01-30T01:14:03;101953.69;;;-3.33;91.64
81005;BME280;70472;47.592;17.640;2024-01-30T01:14:35;101952.94;;;-3.38;91.65
81005;BME280;70472;47.592;17.640;2024-01-30T01:15:08;101956.44;;;-3.39;91.07
81005;BME280;70472;47.592;17.640;2024-01-30T01:15:41;101946.66;;;-3.32;91.67
81005;BME280;70472;47.592;17.640;2024-01-30T01:16:13;101956.38;;;-3.36;90.91
81005;BME280;70472;47.592;17.640;2024-01-30T01:16:46;101953.75;;;-3.36;90.97
81005;BME280;70472;47.592;17.640;2024-01-30T01:17:18;101947.69;;;-3.38;90.97
81005;BME280;70472;47.592;17.640;2024-01-30T01:17:50;101950.28;;;-3.36;91.35
81005;BME280;70472;47.592;17.640;2024-01-30T01:18:23;101952.03;;;-3.38;91.36
81005;BME280;70472;47.592;17.640;2024-01-30T01:18:55;101950.28;;;-3.36;91.11
81005;BME280;70472;47.592;17.640;2024-01-30T01:19:28;101955.56;;;-3.39;91.37
81005;BME280;70472;47.592;17.640;2024-01-30T01:20:00;101953.03;;;-3.44;91.48
81005;BME280;70472;47.592;17.640;2024-01-30T01:20:33;101954.91;;;-3.49;90.89
81005;BME280;70472;47.592;17.640;2024-01-30T01:21:05;101947.00;;;-3.47;91.49
81005;BME280;70472;47.592;17.640;2024-01-30T01:21:38;101945.28;;;-3.50;92.38
81005;BME280;70472;47.592;17.640;2024-01-30T01:22:10;101949.53;;;-3.43;92.35
81005;BME280;70472;47.592;17.640;2024-01-30T01:22:43;101943.31;;;-3.37;92.14
81005;BME280;70472;47.592;17.640;2024-01-30T01:23:15;101952.13;;;-3.41;91.77
81005;BME280;70472;47.592;17.640;2024-01-30T01:23:47;101949.41;;;-3.37;91.63
81005;BME280;70472;47.592;17.640;2024-01-30T01:24:20;101945.06;;;-3.39;91.68
81005;BME280;70472;47.592;17.640;2024-01-30T01:24:52;101951.19;;;-3.39;91.73
81005;BME280;70472;47.592;17.640;2024-01-30T01:25:25;101942.44;;;-3.38;91.71
81005;BME280;70472;47.592;17.640;2024-01-30T01:25:57;101953.78;;;-3.37;91.91
81005;BME280;70472;47.592;17.640;2024-01-30T01:26:32;101952.94;;;-3.38;92.22
81005;BME280;70472;47.592;17.640;2024-01-30T01:27:06;101950.19;;;-3.33;91.71
81005;BME280;70472;47.592;17.640;2024-01-30T01:27:39;101941.47;;;-3.34;91.75
81005;BME280;70472;47.592;17.640;2024-01-30T01:28:11;101947.66;;;-3.36;92.21
81005;BME280;70472;47.592;17.640;2024-01-30T01:28:44;101949.47;;;-3.40;92.17
81005;BME280;70472;47.592;17.640;2024-01-30T01:29:16;101945.13;;;-3.41;92.07
81005;BME280;70472;47.592;17.640;2024-01-30T01:29:48;101942.50;;;-3.41;91.93
81005;BME280;70472;47.592;17.640;2024-01-30T01:30:21;101943.31;;;-3.39;91.88
81005;BME280;70472;47.592;17.640;2024-01-30T01:30:53;101950.28;;;-3.36;91.94
81005;BME280;70472;47.592;17.640;2024-01-30T01:31:25;101942.34;;;-3.35;92.02
81005;BME280;70472;47.592;17.640;2024-01-30T01:31:58;101938.78;;;-3.31;91.52
81005;BME280;70472;47.592;17.640;2024-01-30T01:32:31;101941.47;;;-3.34;92.18
81005;BME280;70472;47.592;17.640;2024-01-30T01:33:04;101945.81;;;-3.33;91.75
81005;BME280;70472;47.592;17.640;2024-01-30T01:33:36;101948.47;;;-3.34;92.32
81005;BME280;70472;47.592;17.640;2024-01-30T01:34:12;101942.34;;;-3.35;92.15
81005;BME280;70472;47.592;17.640;2024-01-30T01:34:45;101947.66;;;-3.36;91.13
81005;BME280;70472;47.592;17.640;2024-01-30T01:35:17;101942.44;;;-3.39;91.24
81005;BME280;70472;47.592;17.640;2024-01-30T01:35:50;101945.88;;;-3.36;91.83
81005;BME280;70472;47.592;17.640;2024-01-30T01:36:22;101945.75;;;-3.30;91.41
81005;BME280;70472;47.592;17.640;2024-01-30T01:36:55;101933.50;;;-3.29;91.45
81005;BME280;70472;47.592;17.640;2024-01-30T01:37:27;101937.97;;;-3.34;91.36
81005;BME280;70472;47.592;17.640;2024-01-30T01:38:00;101945.03;;;-3.36;90.74
81005;BME280;70472;47.592;17.640;2024-01-30T01:38:32;101940.63;;;-3.36;90.99
81005;BME280;70472;47.592;17.640;2024-01-30T01:39:05;101939.72;;;-3.35;91.31
81005;BME280;70472;47.592;17.640;2024-01-30T01:39:37;101938.00;;;-3.36;91.44
81005;BME280;70472;47.592;17.640;2024-01-30T01:40:10;101945.88;;;-3.36;90.70
81005;BME280;70472;47.592;17.640;2024-01-30T01:40:43;101944.16;;;-3.37;91.22
81005;BME280;70472;47.592;17.640;2024-01-30T01:41:15;101946.78;;;-3.37;91.62
81005;BME280;70472;47.592;17.640;2024-01-30T01:41:48;101948.56;;;-3.39;91.66
81005;BME280;70472;47.592;17.640;2024-01-30T01:42:20;101944.13;;;-3.35;91.09
81005;BME280;70472;47.592;17.640;2024-01-30T01:42:55;101943.31;;;-3.39;90.83
81005;BME280;70472;47.592;17.640;2024-01-30T01:43:27;101947.78;;;-3.44;91.26
81005;BME280;70472;47.592;17.640;2024-01-30T01:44:00;101942.44;;;-3.39;91.67
81005;BME280;70472;47.592;17.640;2024-01-30T01:44:32;101942.44;;;-3.38;91.91
81005;BME280;70472;47.592;17.640;2024-01-30T01:45:05;101937.09;;;-3.35;91.65
81005;BME280;70472;47.592;17.640;2024-01-30T01:45:37;101943.22;;;-3.34;91.26
81005;BME280;70472;47.592;17.640;2024-01-30T01:46:10;101948.56;;;-3.39;91.53
81005;BME280;70472;47.592;17.640;2024-01-30T01:46:43;101950.22;;;-3.35;91.44
81005;BME280;70472;47.592;17.640;2024-01-30T01:47:15;101951.06;;;-3.33;91.40
81005;BME280;70472;47.592;17.640;2024-01-30T01:47:51;101945.75;;;-3.30;91.66
81005;BME280;70472;47.592;17.640;2024-01-30T01:48:23;101945.81;;;-3.33;91.48
81005;BME280;70472;47.592;17.640;2024-01-30T01:48:56;101954.66;;;-3.37;91.12
81005;BME280;70472;47.592;17.640;2024-01-30T01:49:29;101942.44;;;-3.38;91.48
81005;BME280;70472;47.592;17.640;2024-01-30T01:50:02;101940.63;;;-3.36;91.00
81005;BME280;70472;47.592;17.640;2024-01-30T01:50:36;101948.63;;;-3.42;91.04
81005;BME280;70472;47.592;17.640;2024-01-30T01:51:09;101945.41;;;-3.55;91.47
81005;BME280;70472;47.592;17.640;2024-01-30T01:51:43;101952.28;;;-3.49;91.19
81005;BME280;70472;47.592;17.640;2024-01-30T01:52:17;101943.44;;;-3.43;91.39
81005;BME280;70472;47.592;17.640;2024-01-30T01:52:50;101950.41;;;-3.42;91.76
81005;BME280;70472;47.592;17.640;2024-01-30T01:53:23;101942.53;;;-3.44;91.27
81005;BME280;70472;47.592;17.640;2024-01-30T01:53:57;101952.22;;;-3.46;91.18
81005;BME280;70472;47.592;17.640;2024-01-30T01:54:31;101950.41;;;-3.42;91.14
81005;BME280;70472;47.592;17.640;2024-01-30T01:55:05;101947.06;;;-3.51;91.67
81005;BME280;70472;47.592;17.640;2024-01-30T01:55:42;101949.81;;;-3.55;91.56
81005;BME280;70472;47.592;17.640;2024-01-30T01:56:15;101942.66;;;-3.48;91.76
81005;BME280;70472;47.592;17.640;2024-01-30T01:56:48;101953.94;;;-3.45;91.81
81005;BME280;70472;47.592;17.640;2024-01-30T01:57:21;101955.78;;;-3.48;91.48
81005;BME280;70472;47.592;17.640;2024-01-30T01:57:54;101949.84;;;-3.58;91.10
81005;BME280;70472;47.592;17.640;2024-01-30T01:58:28;101950.66;;;-3.56;91.56
81005;BME280;70472;47.592;17.640;2024-01-30T01:59:07;101950.66;;;-3.55;91.94
81005;BME280;70472;47.592;17.640;2024-01-30T01:59:39;101947.88;;;-3.47;91.97
81005;BME280;70472;47.592;17.640;2024-01-30T02:00:12;101940.91;;;-3.48;91.46
81005;BME280;70472;47.592;17.640;2024-01-30T02:00:46;101947.00;;;-3.47;92.08
81005;BME280;70472;47.592;17.640;2024-01-30T02:01:20;101947.88;;;-3.47;91.80
81005;BME280;70472;47.592;17.640;2024-01-30T02:01:54;101950.53;;;-3.50;91.55
81005;BME280;70472;47.592;17.640;2024-01-30T02:02:30;101948.81;;;-3.51;91.60
81005;BME280;70472;47.592;17.640;2024-01-30T02:03:10;101944.38;;;-3.47;91.64
81005;BME280;70472;47.592;17.640;2024-01-30T02:03:42;101946.91;;;-3.43;91.33
81005;BME280;70472;47.592;17.640;2024-01-30T02:04:16;101946.03;;;-3.42;91.13
81005;BME280;70472;47.592;17.640;2024-01-30T02:04:49;101951.31;;;-3.45;91.63
81005;BME280;70472;47.592;17.640;2024-01-30T02:05:22;101943.63;;;-3.53;91.67
81005;BME280;70472;47.592;17.640;2024-01-30T02:05:55;101940.91;;;-3.48;91.34
81005;BME280;70472;47.592;17.640;2024-01-30T02:06:28;101940.00;;;-3.47;91.53
81005;BME280;70472;47.592;17.640;2024-01-30T02:07:01;101951.41;;;-3.48;91.71
81005;BME280;70472;47.592;17.640;2024-01-30T02:07:33;101942.63;;;-3.47;92.29
81005;BME280;70472;47.592;17.640;2024-01-30T02:08:06;101937.28;;;-3.44;92.28
81005;BME280;70472;47.592;17.640;2024-01-30T02:08:40;101937.25;;;-3.41;91.60
81005;BME280;70472;47.592;17.640;2024-01-30T02:09:13;101941.72;;;-3.46;92.07
81005;BME280;70472;47.592;17.640;2024-01-30T02:09:45;101938.31;;;-3.51;91.52
81005;BME280;70472;47.592;17.640;2024-01-30T02:10:18;101932.13;;;-3.47;91.99
81005;BME280;70472;47.592;17.640;2024-01-30T02:10:50;101944.34;;;-3.46;92.09
81005;BME280;70472;47.592;17.640;2024-01-30T02:11:23;101939.19;;;-3.49;91.46
81005;BME280;70472;47.592;17.640;2024-01-30T02:11:56;101933.84;;;-3.46;91.82
81005;BME280;70472;47.592;17.640;2024-01-30T02:12:28;101941.75;;;-3.47;92.00
81005;BME280;70472;47.592;17.640;2024-01-30T02:13:00;101938.19;;;-3.45;91.62
81005;BME280;70472;47.592;17.640;2024-01-30T02:13:33;101936.56;;;-3.49;92.04
81005;BME280;70472;47.592;17.640;2024-01-30T02:14:05;101937.44;;;-3.50;92.02
81005;BME280;70472;47.592;17.640;2024-01-30T02:14:45;101930.44;;;-3.50;91.73
81005;BME280;70472;47.592;17.640;2024-01-30T02:15:18;101931.19;;;-3.44;91.57
81005;BME280;70472;47.592;17.640;2024-01-30T02:15:54;101932.94;;;-3.43;92.35
81005;BME280;70472;47.592;17.640;2024-01-30T02:16:26;101928.69;;;-3.49;92.45
81005;BME280;70472;47.592;17.640;2024-01-30T02:16:59;101917.28;;;-3.48;92.55
81005;BME280;70472;47.592;17.640;2024-01-30T02:17:31;101922.41;;;-3.42;92.26
81005;BME280;70472;47.592;17.640;2024-01-30T02:18:04;101919.00;;;-3.47;92.12
81005;BME280;70472;47.592;17.640;2024-01-30T02:18:36;101921.78;;;-3.53;92.38
81005;BME280;70472;47.592;17.640;2024-01-30T02:19:09;101930.41;;;-3.48;92.41
81005;BME280;70472;47.592;17.640;2024-01-30T02:19:41;101925.94;;;-3.44;92.42
81005;BME280;70472;47.592;17.640;2024-01-30T02:20:14;101915.53;;;-3.47;92.19
81005;BME280;70472;47.592;17.640;2024-01-30T02:20:46;101921.63;;;-3.47;91.86
81005;BME280;70472;47.592;17.640;2024-01-30T02:21:19;101923.50;;;-3.52;91.55
81005;BME280;70472;47.592;17.640;2024-01-30T02:21:52;101921.69;;;-3.50;91.44
81005;BME280;70472;47.592;17.640;2024-01-30T02:22:25;101913.00;;;-3.52;92.01
81005;BME280;70472;47.592;17.640;2024-01-30T02:22:59;101915.56;;;-3.49;91.30
81005;BME280;70472;47.592;17.640;2024-01-30T02:23:34;101912.13;;;-3.53;91.40
81005;BME280;70472;47.592;17.640;2024-01-30T02:24:06;101911.19;;;-3.48;91.65
81005;BME280;70472;47.592;17.640;2024-01-30T02:24:38;101915.69;;;-3.55;91.13
81005;BME280;70472;47.592;17.640;2024-01-30T02:25:11;101906.06;;;-3.55;91.44
81005;BME280;70472;47.592;17.640;2024-01-30T02:25:43;101912.09;;;-3.50;91.89
81005;BME280;70472;47.592;17.640;2024-01-30T02:26:16;101915.66;;;-3.54;92.03
81005;BME280;70472;47.592;17.640;2024-01-30T02:26:48;101918.34;;;-3.57;92.28
81005;BME280;70472;47.592;17.640;2024-01-30T02:27:20;101913.03;;;-3.54;92.45
81005;BME280;70472;47.592;17.640;2024-01-30T02:27:53;101911.22;;;-3.52;92.21
81005;BME280;70472;47.592;17.640;2024-01-30T02:28:25;101913.91;;;-3.53;92.58
81005;BME280;70472;47.592;17.640;2024-01-30T02:28:58;101907.75;;;-3.52;92.71
81005;BME280;70472;47.592;17.640;2024-01-30T02:29:30;101909.59;;;-3.57;92.52
81005;BME280;70472;47.592;17.640;2024-01-30T02:30:03;101896.47;;;-3.56;92.19
81005;BME280;70472;47.592;17.640;2024-01-30T02:30:35;101908.66;;;-3.53;92.21
81005;BME280;70472;47.592;17.640;2024-01-30T02:31:07;101907.88;;;-3.58;91.87
81005;BME280;70472;47.592;17.640;2024-01-30T02:31:40;101909.47;;;-3.51;92.13
81005;BME280;70472;47.592;17.640;2024-01-30T02:32:12;101913.94;;;-3.56;91.81
81005;BME280;70472;47.592;17.640;2024-01-30T02:32:45;101907.88;;;-3.58;92.14
81005;BME280;70472;47.592;17.640;2024-01-30T02:33:17;101912.22;;;-3.57;92.46
81005;BME280;70472;47.592;17.640;2024-01-30T02:33:49;101906.94;;;-3.54;92.01
81005;BME280;70472;47.592;17.640;2024-01-30T02:34:23;101907.78;;;-3.54;91.97
81005;BME280;70472;47.592;17.640;2024-01-30T02:34:55;101901.66;;;-3.53;92.15
81005;BME280;70472;47.592;17.640;2024-01-30T02:35:28;101902.50;;;-3.52;92.55
81005;BME280;70472;47.592;17.640;2024-01-30T02:36:00;101911.31;;;-3.56;92.04
81005;BME280;70472;47.592;17.640;2024-01-30T02:36:33;101907.84;;;-3.57;92.00
81005;BME280;70472;47.592;17.640;2024-01-30T02:37:06;101905.94;;;-3.50;92.20
81005;BME280;70472;47.592;17.640;2024-01-30T02:37:38;101902.50;;;-3.52;92.32
81005;BME280;70472;47.592;17.640;2024-01-30T02:38:11;101912.22;;;-3.56;93.09
81005;BME280;70472;47.592;17.640;2024-01-30T02:38:45;101908.56;;;-3.50;92.71
81005;BME280;70472;47.592;17.640;2024-01-30T02:39:18;101912.25;;;-3.59;92.84
81005;BME280;70472;47.592;17.640;2024-01-30T02:39:50;101911.53;;;-3.65;93.03
81005;BME280;70472;47.592;17.640;2024-01-30T02:40:23;101902.59;;;-3.55;94.04
81005;BME280;70472;47.592;17.640;2024-01-30T02:40:55;101912.88;;;-3.46;93.92
81005;BME280;70472;47.592;17.640;2024-01-30T02:41:28;101912.78;;;-3.41;93.94
81005;BME280;70472;47.592;17.640;2024-01-30T02:42:00;101914.53;;;-3.42;93.96
81005;BME280;70472;47.592;17.640;2024-01-30T02:42:33;101914.50;;;-3.40;94.68
81005;BME280;70472;47.592;17.640;2024-01-30T02:43:05;101912.81;;;-3.43;94.53
81005;BME280;70472;47.592;17.640;2024-01-30T02:43:37;101912.72;;;-3.40;94.81
81005;BME280;70472;47.592;17.640;2024-01-30T02:44:10;101919.69;;;-3.37;94.73
81005;BME280;70472;47.592;17.640;2024-01-30T02:44:42;101923.16;;;-3.37;94.30
81005;BME280;70472;47.592;17.640;2024-01-30T02:45:15;101916.22;;;-3.39;94.04
81005;BME280;70472;47.592;17.640;2024-01-30T02:45:47;101918.66;;;-3.30;95.48
81005;BME280;70472;47.592;17.640;2024-01-30T02:46:20;101923.81;;;-3.26;95.53
81005;BME280;70472;47.592;17.640;2024-01-30T02:46:52;101924.66;;;-3.27;95.77
81005;BME280;70472;47.592;17.640;2024-01-30T02:47:25;101920.22;;;-3.23;95.68
81005;BME280;70472;47.592;17.640;2024-01-30T02:47:58;101921.91;;;-3.20;96.02
81005;BME280;70472;47.592;17.640;2024-01-30T02:48:30;101918.56;;;-3.27;95.39
81005;BME280;70472;47.592;17.640;2024-01-30T02:49:02;101918.56;;;-3.26;96.31